Aviation Digital Data Service (ADDS)

Output produced by METARs form (1002 UTC 19 November 2018)
found at http://www.aviationweather.gov/metar/data/
 
RJEC 190905Z 12003KT 5000 -SHSN FEW001 SCT008 BKN030 00/00 Q1013 RMK 1ST001 3ST008 6CU030 A2992
TAF AMD RJEC 190937Z 1909/2012 18004KT 9999 FEW006 BKN015 
     BECMG 1909/1911 33005KT 
     TEMPO 1909/1915 3000 -SHSN FEW003 BKN006
       
TAF RJCH 190512Z 1906/2012 32006KT 9999 FEW020 BKN040
       
RJCK 190939Z 33008KT 8000 -SHRA FEW005 SCT010 BKN030 05/05 Q1010 RMK 1ST005 3ST010 6CU030 A2984
RJCK 190937Z 33008KT 8000 SHRA FEW003 SCT008 BKN020 05/05 Q1010 RMK 1ST003 3ST008 6CU020 A2984
RJCK 190934Z 33009KT 5000 +SHRA BR FEW003 SCT008 BKN015 05/05 Q1010 RMK 1ST003 3ST008 6ST015 A2984
RJCK 190922Z 33010KT 5000 SHRA BR FEW002 SCT006 BKN015 05/05 Q1010 RMK 1ST002 4ST006 6ST015 A2984
RJCK 190916Z 33008KT 3200 BCFG SHRA BR FEW001 SCT005 BKN006 05/05 Q1010 RMK 1ST001 4ST005 7ST006 A2984
RJCK 190906Z 32007KT 3000 BCFG +SHRA BR FEW001 SCT004 BKN005 05/04 Q1011 RMK 1ST001 4ST004 7ST005 A2985
TAF RJCK 190511Z 1906/2012 15013KT 9999 -SHRA FEW003 BKN025 
     TEMPO 1906/1910 1500 SHRA BR BKN003 BKN025 FEW025CB 
     BECMG 1907/1909 32006KT 
     TEMPO 1910/1912 3000 -SHRA BR FEW003 BKN006 
     TEMPO 1912/1915 FEW003 BKN006
       
RJCB 190933Z 30004KT 9999 FEW004 SCT006 BKN014 01/01 Q1011 RMK 1ST004 4ST006 7ST014 A2986
TAF RJCB 190508Z 1906/2012 33013KT 9999 FEW005 BKN015 
     TEMPO 1906/1909 1500 SHRASN BR FEW002 BKN003 
     TEMPO 1909/1912 3000 BR FEW003 BKN005
       
RJCM 190948Z VRB01KT 7000 -SHRA FEW010 SCT015 BKN020 02/01 Q1012 RMK 1ST010 3ST015 6CU020 A2990
TAF RJCM 190513Z 1906/2012 35005KT 9999 -SHRA FEW005 BKN015 
     TEMPO 1906/1912 2000 SHRA BR FEW003 BKN005 
     TEMPO 1912/1918 4000 -SHRASN BR FEW005 BKN008
       
TAF RJSA 190505Z 1906/2012 24005KT 9999 FEW010 SCT020 BKN030 
     TEMPO 1906/1907 4000 SHRA BR FEW005 BKN008 BKN020
       
TAF RJSK 190505Z 1906/2012 30010KT 9999 FEW020 BKN040 
     TEMPO 1906/1909 30015G25KT 
     BECMG 1913/1915 13003KT 
     BECMG 2000/2003 30005KT 
     TEMPO 2006/2009 4000 SHRA BR 
     BECMG 2009/2012 13004KT
       
TAF RJSS 190506Z 1906/2012 13004KT 9999 FEW020 SCT050 
     BECMG 1906/1908 32010KT
       
TAF RJSF 190505Z 1906/2012 34013KT 9999 FEW020 BKN040
       
TAF RJSN 190505Z 1906/2012 32020KT 9999 FEW020 BKN040 
     BECMG 2000/2003 32008KT 
     BECMG 2003/2006 25012KT